sensor_id;sensor_type;location;lat;lon;timestamp;P1;durP1;ratioP1;P2;durP2;ratioP2
32080;SDS011;18593;51.426;7.030;2023-08-31T00:02:20;10.60;;;2.80;;
32080;SDS011;18593;51.426;7.030;2023-08-31T00:04:50;6.72;;;2.80;;
32080;SDS011;18593;51.426;7.030;2023-08-31T00:07:18;11.35;;;2.88;;
32080;SDS011;18593;51.426;7.030;2023-08-31T00:09:47;9.43;;;2.70;;
32080;SDS011;18593;51.426;7.030;2023-08-31T00:12:14;8.82;;;3.20;;
32080;SDS011;18593;51.426;7.030;2023-08-31T00:14:42;7.97;;;2.75;;
32080;SDS011;18593;51.426;7.030;2023-08-31T00:17:09;11.02;;;2.97;;
32080;SDS011;18593;51.426;7.030;2023-08-31T00:19:36;8.90;;;3.00;;
32080;SDS011;18593;51.426;7.030;2023-08-31T00:22:05;8.13;;;2.78;;
32080;SDS011;18593;51.426;7.030;2023-08-31T00:24:32;7.88;;;3.13;;
32080;SDS011;18593;51.426;7.030;2023-08-31T00:27:01;7.10;;;2.65;;
32080;SDS011;18593;51.426;7.030;2023-08-31T00:29:31;7.80;;;2.67;;
32080;SDS011;18593;51.426;7.030;2023-08-31T00:31:59;8.35;;;2.92;;
32080;SDS011;18593;51.426;7.030;2023-08-31T00:34:27;5.13;;;2.72;;
32080;SDS011;18593;51.426;7.030;2023-08-31T00:36:54;9.18;;;3.13;;
32080;SDS011;18593;51.426;7.030;2023-08-31T00:39:22;15.30;;;3.08;;
32080;SDS011;18593;51.426;7.030;2023-08-31T00:41:50;9.80;;;2.63;;
32080;SDS011;18593;51.426;7.030;2023-08-31T00:44:19;7.78;;;2.70;;
32080;SDS011;18593;51.426;7.030;2023-08-31T00:46:47;8.10;;;3.25;;
32080;SDS011;18593;51.426;7.030;2023-08-31T00:49:15;7.25;;;3.35;;
32080;SDS011;18593;51.426;7.030;2023-08-31T00:51:42;10.43;;;3.20;;
32080;SDS011;18593;51.426;7.030;2023-08-31T00:54:14;7.28;;;2.90;;
32080;SDS011;18593;51.426;7.030;2023-08-31T00:56:42;8.48;;;3.28;;
32080;SDS011;18593;51.426;7.030;2023-08-31T00:59:10;10.48;;;3.33;;
32080;SDS011;18593;51.426;7.030;2023-08-31T01:01:40;9.80;;;3.53;;
32080;SDS011;18593;51.426;7.030;2023-08-31T01:04:17;8.38;;;3.50;;
32080;SDS011;18593;51.426;7.030;2023-08-31T01:06:53;9.68;;;3.58;;
32080;SDS011;18593;51.426;7.030;2023-08-31T01:09:30;9.68;;;3.33;;
32080;SDS011;18593;51.426;7.030;2023-08-31T01:12:07;9.02;;;3.30;;
32080;SDS011;18593;51.426;7.030;2023-08-31T01:14:42;7.95;;;4.10;;
32080;SDS011;18593;51.426;7.030;2023-08-31T01:17:17;8.68;;;3.28;;
32080;SDS011;18593;51.426;7.030;2023-08-31T01:19:48;11.52;;;3.60;;
32080;SDS011;18593;51.426;7.030;2023-08-31T01:22:21;7.35;;;3.22;;
32080;SDS011;18593;51.426;7.030;2023-08-31T01:24:57;6.88;;;3.30;;
32080;SDS011;18593;51.426;7.030;2023-08-31T01:27:29;10.68;;;3.40;;
32080;SDS011;18593;51.426;7.030;2023-08-31T01:29:57;8.68;;;3.60;;
32080;SDS011;18593;51.426;7.030;2023-08-31T01:32:25;8.02;;;3.80;;
32080;SDS011;18593;51.426;7.030;2023-08-31T01:34:52;10.60;;;3.92;;
32080;SDS011;18593;51.426;7.030;2023-08-31T01:37:24;16.77;;;3.70;;
32080;SDS011;18593;51.426;7.030;2023-08-31T01:40:02;8.52;;;3.30;;
32080;SDS011;18593;51.426;7.030;2023-08-31T01:42:37;9.93;;;3.72;;
32080;SDS011;18593;51.426;7.030;2023-08-31T01:45:07;7.13;;;3.55;;
32080;SDS011;18593;51.426;7.030;2023-08-31T01:47:37;5.23;;;3.40;;
32080;SDS011;18593;51.426;7.030;2023-08-31T01:50:04;9.98;;;3.78;;
32080;SDS011;18593;51.426;7.030;2023-08-31T01:52:32;8.65;;;3.65;;
32080;SDS011;18593;51.426;7.030;2023-08-31T01:55:01;9.85;;;3.67;;
32080;SDS011;18593;51.426;7.030;2023-08-31T01:57:29;7.95;;;3.55;;
32080;SDS011;18593;51.426;7.030;2023-08-31T02:00:11;10.45;;;3.63;;
32080;SDS011;18593;51.426;7.030;2023-08-31T02:02:42;9.75;;;3.70;;
32080;SDS011;18593;51.426;7.030;2023-08-31T02:05:09;8.00;;;3.47;;
32080;SDS011;18593;51.426;7.030;2023-08-31T02:07:37;10.10;;;3.80;;
32080;SDS011;18593;51.426;7.030;2023-08-31T02:10:07;8.48;;;3.80;;
32080;SDS011;18593;51.426;7.030;2023-08-31T02:12:34;7.30;;;3.65;;
32080;SDS011;18593;51.426;7.030;2023-08-31T02:15:03;15.35;;;3.60;;
32080;SDS011;18593;51.426;7.030;2023-08-31T02:17:31;7.97;;;3.70;;
32080;SDS011;18593;51.426;7.030;2023-08-31T02:19:59;7.78;;;3.47;;
32080;SDS011;18593;51.426;7.030;2023-08-31T02:22:29;8.70;;;3.38;;
32080;SDS011;18593;51.426;7.030;2023-08-31T02:24:57;11.02;;;3.40;;
32080;SDS011;18593;51.426;7.030;2023-08-31T02:27:25;7.22;;;3.67;;
32080;SDS011;18593;51.426;7.030;2023-08-31T02:29:53;8.27;;;3.70;;
32080;SDS011;18593;51.426;7.030;2023-08-31T02:32:20;9.70;;;3.95;;
32080;SDS011;18593;51.426;7.030;2023-08-31T02:34:47;9.00;;;3.60;;
32080;SDS011;18593;51.426;7.030;2023-08-31T02:37:15;7.80;;;3.53;;
32080;SDS011;18593;51.426;7.030;2023-08-31T02:39:43;8.27;;;3.90;;
32080;SDS011;18593;51.426;7.030;2023-08-31T02:42:10;10.82;;;4.25;;
32080;SDS011;18593;51.426;7.030;2023-08-31T02:44:39;9.15;;;3.72;;
32080;SDS011;18593;51.426;7.030;2023-08-31T02:47:06;9.73;;;3.80;;
32080;SDS011;18593;51.426;7.030;2023-08-31T02:49:33;11.73;;;3.75;;
32080;SDS011;18593;51.426;7.030;2023-08-31T02:52:00;8.98;;;4.28;;
32080;SDS011;18593;51.426;7.030;2023-08-31T02:54:28;14.18;;;3.83;;
32080;SDS011;18593;51.426;7.030;2023-08-31T02:56:55;8.90;;;3.38;;
32080;SDS011;18593;51.426;7.030;2023-08-31T02:59:22;6.03;;;3.20;;
32080;SDS011;18593;51.426;7.030;2023-08-31T03:01:51;8.00;;;3.20;;
32080;SDS011;18593;51.426;7.030;2023-08-31T03:04:18;8.50;;;3.60;;
32080;SDS011;18593;51.426;7.030;2023-08-31T03:06:45;10.55;;;3.70;;
32080;SDS011;18593;51.426;7.030;2023-08-31T03:09:13;8.20;;;3.83;;
32080;SDS011;18593;51.426;7.030;2023-08-31T03:11:40;9.15;;;3.60;;
32080;SDS011;18593;51.426;7.030;2023-08-31T03:14:07;9.90;;;3.95;;
32080;SDS011;18593;51.426;7.030;2023-08-31T03:16:35;8.15;;;3.70;;
32080;SDS011;18593;51.426;7.030;2023-08-31T03:19:04;7.03;;;3.45;;
32080;SDS011;18593;51.426;7.030;2023-08-31T03:21:32;10.57;;;3.67;;
32080;SDS011;18593;51.426;7.030;2023-08-31T03:23:59;9.15;;;4.03;;
32080;SDS011;18593;51.426;7.030;2023-08-31T03:26:27;6.60;;;3.38;;
32080;SDS011;18593;51.426;7.030;2023-08-31T03:28:54;9.07;;;4.00;;
32080;SDS011;18593;51.426;7.030;2023-08-31T03:31:21;7.03;;;3.85;;
32080;SDS011;18593;51.426;7.030;2023-08-31T03:33:49;7.55;;;3.63;;
32080;SDS011;18593;51.426;7.030;2023-08-31T03:36:18;8.27;;;3.85;;
32080;SDS011;18593;51.426;7.030;2023-08-31T03:38:45;7.00;;;4.05;;
32080;SDS011;18593;51.426;7.030;2023-08-31T03:41:13;8.93;;;3.88;;
32080;SDS011;18593;51.426;7.030;2023-08-31T03:43:40;9.82;;;4.07;;
32080;SDS011;18593;51.426;7.030;2023-08-31T03:46:07;7.75;;;3.80;;
32080;SDS011;18593;51.426;7.030;2023-08-31T03:48:34;8.95;;;4.13;;
32080;SDS011;18593;51.426;7.030;2023-08-31T03:51:02;9.23;;;4.03;;
32080;SDS011;18593;51.426;7.030;2023-08-31T03:53:31;8.35;;;4.25;;
32080;SDS011;18593;51.426;7.030;2023-08-31T03:55:58;7.82;;;4.50;;
32080;SDS011;18593;51.426;7.030;2023-08-31T03:58:25;7.63;;;4.40;;
32080;SDS011;18593;51.426;7.030;2023-08-31T04:00:54;6.28;;;4.13;;
32080;SDS011;18593;51.426;7.030;2023-08-31T04:03:21;8.95;;;4.40;;
32080;SDS011;18593;51.426;7.030;2023-08-31T04:05:53;8.55;;;4.95;;
32080;SDS011;18593;51.426;7.030;2023-08-31T04:08:21;11.88;;;4.50;;
32080;SDS011;18593;51.426;7.030;2023-08-31T04:10:49;9.05;;;4.63;;
32080;SDS011;18593;51.426;7.030;2023-08-31T04:13:16;9.05;;;4.43;;
32080;SDS011;18593;51.426;7.030;2023-08-31T04:15:45;10.38;;;4.55;;
32080;SDS011;18593;51.426;7.030;2023-08-31T04:18:14;10.60;;;4.90;;
32080;SDS011;18593;51.426;7.030;2023-08-31T04:20:47;7.88;;;4.75;;
32080;SDS011;18593;51.426;7.030;2023-08-31T04:23:17;6.60;;;4.25;;
32080;SDS011;18593;51.426;7.030;2023-08-31T04:25:44;9.10;;;4.55;;
32080;SDS011;18593;51.426;7.030;2023-08-31T04:28:13;10.00;;;4.85;;
32080;SDS011;18593;51.426;7.030;2023-08-31T04:30:41;7.80;;;4.68;;
32080;SDS011;18593;51.426;7.030;2023-08-31T04:33:08;8.63;;;4.63;;
32080;SDS011;18593;51.426;7.030;2023-08-31T04:35:35;9.02;;;5.10;;
32080;SDS011;18593;51.426;7.030;2023-08-31T04:38:03;9.85;;;5.97;;
32080;SDS011;18593;51.426;7.030;2023-08-31T04:40:30;11.75;;;7.20;;
32080;SDS011;18593;51.426;7.030;2023-08-31T04:42:57;13.18;;;7.47;;
32080;SDS011;18593;51.426;7.030;2023-08-31T04:45:26;11.93;;;7.45;;
32080;SDS011;18593;51.426;7.030;2023-08-31T04:47:54;13.80;;;8.13;;
32080;SDS011;18593;51.426;7.030;2023-08-31T04:50:21;12.23;;;7.60;;
32080;SDS011;18593;51.426;7.030;2023-08-31T04:52:48;11.20;;;7.45;;
32080;SDS011;18593;51.426;7.030;2023-08-31T04:55:15;11.63;;;7.25;;
32080;SDS011;18593;51.426;7.030;2023-08-31T04:57:42;12.48;;;7.28;;
32080;SDS011;18593;51.426;7.030;2023-08-31T05:00:10;11.90;;;6.88;;
32080;SDS011;18593;51.426;7.030;2023-08-31T05:02:39;12.32;;;7.72;;
32080;SDS011;18593;51.426;7.030;2023-08-31T05:05:08;12.13;;;7.35;;
32080;SDS011;18593;51.426;7.030;2023-08-31T05:07:36;9.70;;;6.90;;
32080;SDS011;18593;51.426;7.030;2023-08-31T05:10:03;12.73;;;7.32;;
32080;SDS011;18593;51.426;7.030;2023-08-31T05:12:32;12.23;;;7.38;;
32080;SDS011;18593;51.426;7.030;2023-08-31T05:15:00;12.88;;;7.78;;
32080;SDS011;18593;51.426;7.030;2023-08-31T05:17:27;11.88;;;7.72;;
32080;SDS011;18593;51.426;7.030;2023-08-31T05:19:56;11.63;;;7.78;;
32080;SDS011;18593;51.426;7.030;2023-08-31T05:22:24;14.50;;;8.57;;
32080;SDS011;18593;51.426;7.030;2023-08-31T05:24:51;15.35;;;7.05;;
32080;SDS011;18593;51.426;7.030;2023-08-31T05:27:18;10.73;;;7.57;;
32080;SDS011;18593;51.426;7.030;2023-08-31T05:29:45;12.40;;;7.28;;
32080;SDS011;18593;51.426;7.030;2023-08-31T05:32:12;11.88;;;6.97;;
32080;SDS011;18593;51.426;7.030;2023-08-31T05:34:40;12.07;;;7.05;;
32080;SDS011;18593;51.426;7.030;2023-08-31T05:37:08;13.52;;;7.15;;
32080;SDS011;18593;51.426;7.030;2023-08-31T05:39:35;11.45;;;6.78;;
32080;SDS011;18593;51.426;7.030;2023-08-31T05:42:03;12.10;;;6.60;;
32080;SDS011;18593;51.426;7.030;2023-08-31T05:44:31;10.10;;;6.35;;
32080;SDS011;18593;51.426;7.030;2023-08-31T05:46:58;10.80;;;6.97;;
32080;SDS011;18593;51.426;7.030;2023-08-31T05:49:25;12.40;;;7.68;;
32080;SDS011;18593;51.426;7.030;2023-08-31T05:51:52;11.13;;;6.80;;
32080;SDS011;18593;51.426;7.030;2023-08-31T05:54:21;11.02;;;7.18;;
32080;SDS011;18593;51.426;7.030;2023-08-31T05:56:48;13.48;;;6.45;;
32080;SDS011;18593;51.426;7.030;2023-08-31T05:59:15;10.45;;;6.35;;
32080;SDS011;18593;51.426;7.030;2023-08-31T06:01:42;11.63;;;6.30;;
32080;SDS011;18593;51.426;7.030;2023-08-31T06:04:10;9.32;;;5.93;;
32080;SDS011;18593;51.426;7.030;2023-08-31T06:06:37;15.35;;;6.38;;
32080;SDS011;18593;51.426;7.030;2023-08-31T06:09:04;10.45;;;6.63;;
32080;SDS011;18593;51.426;7.030;2023-08-31T06:11:33;10.10;;;6.40;;
32080;SDS011;18593;51.426;7.030;2023-08-31T06:14:01;12.10;;;6.45;;
32080;SDS011;18593;51.426;7.030;2023-08-31T06:16:28;9.32;;;5.63;;
32080;SDS011;18593;51.426;7.030;2023-08-31T06:18:55;10.65;;;6.13;;
32080;SDS011;18593;51.426;7.030;2023-08-31T06:21:23;10.95;;;6.50;;
32080;SDS011;18593;51.426;7.030;2023-08-31T06:23:51;11.23;;;6.18;;
32080;SDS011;18593;51.426;7.030;2023-08-31T06:26:18;11.93;;;6.57;;
32080;SDS011;18593;51.426;7.030;2023-08-31T06:28:47;10.38;;;6.55;;
32080;SDS011;18593;51.426;7.030;2023-08-31T06:31:16;12.93;;;5.97;;
32080;SDS011;18593;51.426;7.030;2023-08-31T06:33:43;12.60;;;6.90;;
32080;SDS011;18593;51.426;7.030;2023-08-31T06:36:10;11.50;;;6.50;;
32080;SDS011;18593;51.426;7.030;2023-08-31T06:38:37;16.38;;;6.45;;
32080;SDS011;18593;51.426;7.030;2023-08-31T06:41:05;9.65;;;5.65;;
32080;SDS011;18593;51.426;7.030;2023-08-31T06:43:32;8.32;;;6.25;;
32080;SDS011;18593;51.426;7.030;2023-08-31T06:46:00;8.90;;;5.47;;
32080;SDS011;18593;51.426;7.030;2023-08-31T06:48:28;13.05;;;6.47;;
32080;SDS011;18593;51.426;7.030;2023-08-31T06:50:55;11.05;;;6.20;;
32080;SDS011;18593;51.426;7.030;2023-08-31T06:53:22;10.05;;;5.18;;
32080;SDS011;18593;51.426;7.030;2023-08-31T06:55:50;10.55;;;6.07;;
32080;SDS011;18593;51.426;7.030;2023-08-31T06:58:17;10.13;;;5.82;;
32080;SDS011;18593;51.426;7.030;2023-08-31T07:00:44;10.30;;;5.65;;
32080;SDS011;18593;51.426;7.030;2023-08-31T07:03:14;12.65;;;5.80;;
32080;SDS011;18593;51.426;7.030;2023-08-31T07:05:42;8.88;;;5.32;;
32080;SDS011;18593;51.426;7.030;2023-08-31T07:08:10;11.05;;;5.70;;
32080;SDS011;18593;51.426;7.030;2023-08-31T07:10:37;13.45;;;5.55;;
32080;SDS011;18593;51.426;7.030;2023-08-31T07:13:04;9.57;;;5.60;;
32080;SDS011;18593;51.426;7.030;2023-08-31T07:15:32;9.20;;;4.65;;
32080;SDS011;18593;51.426;7.030;2023-08-31T07:18:00;11.90;;;4.88;;
32080;SDS011;18593;51.426;7.030;2023-08-31T07:20:29;12.02;;;5.43;;
32080;SDS011;18593;51.426;7.030;2023-08-31T07:22:56;12.52;;;5.28;;
32080;SDS011;18593;51.426;7.030;2023-08-31T07:25:24;10.05;;;4.70;;
32080;SDS011;18593;51.426;7.030;2023-08-31T07:27:52;10.32;;;4.85;;
32080;SDS011;18593;51.426;7.030;2023-08-31T07:30:20;8.25;;;4.60;;
32080;SDS011;18593;51.426;7.030;2023-08-31T07:32:47;7.38;;;5.03;;
32080;SDS011;18593;51.426;7.030;2023-08-31T07:35:14;7.95;;;4.65;;
32080;SDS011;18593;51.426;7.030;2023-08-31T07:37:42;10.95;;;4.80;;
32080;SDS011;18593;51.426;7.030;2023-08-31T07:40:10;10.10;;;4.25;;
32080;SDS011;18593;51.426;7.030;2023-08-31T07:42:38;12.23;;;4.28;;
32080;SDS011;18593;51.426;7.030;2023-08-31T07:45:05;8.88;;;4.18;;
32080;SDS011;18593;51.426;7.030;2023-08-31T07:47:34;9.35;;;4.00;;
32080;SDS011;18593;51.426;7.030;2023-08-31T07:50:01;10.80;;;4.18;;
32080;SDS011;18593;51.426;7.030;2023-08-31T07:52:29;6.90;;;4.13;;
32080;SDS011;18593;51.426;7.030;2023-08-31T07:54:57;8.95;;;4.05;;
32080;SDS011;18593;51.426;7.030;2023-08-31T07:57:25;8.13;;;4.07;;
32080;SDS011;18593;51.426;7.030;2023-08-31T07:59:52;8.05;;;3.85;;
32080;SDS011;18593;51.426;7.030;2023-08-31T08:02:19;10.95;;;4.43;;
32080;SDS011;18593;51.426;7.030;2023-08-31T08:04:46;7.22;;;3.50;;
32080;SDS011;18593;51.426;7.030;2023-08-31T08:07:13;8.45;;;4.05;;
32080;SDS011;18593;51.426;7.030;2023-08-31T08:09:41;9.07;;;4.45;;
32080;SDS011;18593;51.426;7.030;2023-08-31T08:12:09;10.30;;;4.20;;
32080;SDS011;18593;51.426;7.030;2023-08-31T08:14:37;9.23;;;4.20;;
32080;SDS011;18593;51.426;7.030;2023-08-31T08:17:04;8.60;;;4.13;;
32080;SDS011;18593;51.426;7.030;2023-08-31T08:19:31;7.85;;;4.10;;
32080;SDS011;18593;51.426;7.030;2023-08-31T08:21:58;10.18;;;4.60;;
32080;SDS011;18593;51.426;7.030;2023-08-31T08:24:26;7.65;;;3.85;;
32080;SDS011;18593;51.426;7.030;2023-08-31T08:26:53;10.68;;;4.20;;
32080;SDS011;18593;51.426;7.030;2023-08-31T08:29:22;9.82;;;4.40;;
32080;SDS011;18593;51.426;7.030;2023-08-31T08:31:49;10.40;;;4.43;;
32080;SDS011;18593;51.426;7.030;2023-08-31T08:34:16;8.57;;;4.18;;
32080;SDS011;18593;51.426;7.030;2023-08-31T08:36:43;11.65;;;4.03;;
32080;SDS011;18593;51.426;7.030;2023-08-31T08:39:11;6.78;;;3.90;;
32080;SDS011;18593;51.426;7.030;2023-08-31T08:41:38;13.25;;;4.50;;
32080;SDS011;18593;51.426;7.030;2023-08-31T08:44:07;7.47;;;3.30;;
32080;SDS011;18593;51.426;7.030;2023-08-31T08:46:36;9.60;;;3.90;;
32080;SDS011;18593;51.426;7.030;2023-08-31T08:49:04;9.57;;;3.90;;
32080;SDS011;18593;51.426;7.030;2023-08-31T08:51:32;6.22;;;3.20;;
32080;SDS011;18593;51.426;7.030;2023-08-31T08:53:59;10.15;;;3.42;;
32080;SDS011;18593;51.426;7.030;2023-08-31T08:56:28;7.38;;;3.40;;
32080;SDS011;18593;51.426;7.030;2023-08-31T08:58:55;6.40;;;3.40;;
32080;SDS011;18593;51.426;7.030;2023-08-31T09:01:23;12.93;;;3.63;;
32080;SDS011;18593;51.426;7.030;2023-08-31T09:03:52;8.55;;;4.20;;
32080;SDS011;18593;51.426;7.030;2023-08-31T09:06:19;8.32;;;3.75;;
32080;SDS011;18593;51.426;7.030;2023-08-31T09:08:52;8.82;;;4.00;;
32080;SDS011;18593;51.426;7.030;2023-08-31T09:11:21;11.15;;;4.13;;
32080;SDS011;18593;51.426;7.030;2023-08-31T09:13:49;9.00;;;4.22;;
32080;SDS011;18593;51.426;7.030;2023-08-31T09:16:27;10.07;;;4.20;;
32080;SDS011;18593;51.426;7.030;2023-08-31T09:18:57;7.68;;;3.63;;
32080;SDS011;18593;51.426;7.030;2023-08-31T09:21:34;6.20;;;3.25;;
32080;SDS011;18593;51.426;7.030;2023-08-31T09:24:03;7.80;;;3.50;;
32080;SDS011;18593;51.426;7.030;2023-08-31T09:26:37;8.65;;;3.90;;
32080;SDS011;18593;51.426;7.030;2023-08-31T09:29:04;6.53;;;3.60;;
32080;SDS011;18593;51.426;7.030;2023-08-31T09:31:33;8.20;;;3.40;;
32080;SDS011;18593;51.426;7.030;2023-08-31T09:34:01;7.05;;;3.40;;
32080;SDS011;18593;51.426;7.030;2023-08-31T09:36:29;8.65;;;3.08;;
32080;SDS011;18593;51.426;7.030;2023-08-31T09:38:58;9.65;;;3.30;;
32080;SDS011;18593;51.426;7.030;2023-08-31T09:41:25;5.85;;;3.20;;
32080;SDS011;18593;51.426;7.030;2023-08-31T09:43:53;6.82;;;3.10;;
32080;SDS011;18593;51.426;7.030;2023-08-31T09:46:20;8.88;;;3.03;;
32080;SDS011;18593;51.426;7.030;2023-08-31T09:48:48;6.68;;;3.00;;
32080;SDS011;18593;51.426;7.030;2023-08-31T09:51:17;5.80;;;2.85;;
32080;SDS011;18593;51.426;7.030;2023-08-31T09:53:48;10.15;;;3.40;;
32080;SDS011;18593;51.426;7.030;2023-08-31T09:56:20;7.18;;;2.70;;
32080;SDS011;18593;51.426;7.030;2023-08-31T09:58:50;5.28;;;2.50;;
32080;SDS011;18593;51.426;7.030;2023-08-31T10:01:17;6.05;;;3.15;;
32080;SDS011;18593;51.426;7.030;2023-08-31T10:03:44;6.72;;;2.80;;
32080;SDS011;18593;51.426;7.030;2023-08-31T10:06:12;7.07;;;2.38;;
32080;SDS011;18593;51.426;7.030;2023-08-31T10:08:41;6.47;;;2.50;;
32080;SDS011;18593;51.426;7.030;2023-08-31T10:11:08;4.50;;;2.25;;
32080;SDS011;18593;51.426;7.030;2023-08-31T10:13:38;11.52;;;2.20;;
32080;SDS011;18593;51.426;7.030;2023-08-31T10:16:07;6.60;;;2.10;;
32080;SDS011;18593;51.426;7.030;2023-08-31T10:18:35;6.72;;;2.10;;
32080;SDS011;18593;51.426;7.030;2023-08-31T10:21:02;6.85;;;2.30;;
32080;SDS011;18593;51.426;7.030;2023-08-31T10:23:30;6.05;;;2.10;;
32080;SDS011;18593;51.426;7.030;2023-08-31T10:26:05;7.13;;;2.42;;
32080;SDS011;18593;51.426;7.030;2023-08-31T10:28:38;5.50;;;2.10;;
32080;SDS011;18593;51.426;7.030;2023-08-31T10:31:09;6.88;;;2.40;;
32080;SDS011;18593;51.426;7.030;2023-08-31T10:33:41;6.72;;;1.67;;
32080;SDS011;18593;51.426;7.030;2023-08-31T10:36:11;7.43;;;2.05;;
32080;SDS011;18593;51.426;7.030;2023-08-31T10:38:40;6.57;;;2.17;;
32080;SDS011;18593;51.426;7.030;2023-08-31T10:41:18;7.10;;;2.40;;
32080;SDS011;18593;51.426;7.030;2023-08-31T10:43:48;7.15;;;2.60;;
32080;SDS011;18593;51.426;7.030;2023-08-31T10:46:18;5.68;;;2.20;;
32080;SDS011;18593;51.426;7.030;2023-08-31T10:48:57;6.80;;;2.20;;
32080;SDS011;18593;51.426;7.030;2023-08-31T10:51:26;8.40;;;2.60;;
32080;SDS011;18593;51.426;7.030;2023-08-31T10:54:05;6.50;;;2.45;;
32080;SDS011;18593;51.426;7.030;2023-08-31T10:56:42;5.95;;;2.28;;
32080;SDS011;18593;51.426;7.030;2023-08-31T10:59:20;6.28;;;2.58;;
32080;SDS011;18593;51.426;7.030;2023-08-31T11:01:51;7.68;;;2.25;;
32080;SDS011;18593;51.426;7.030;2023-08-31T11:04:20;9.77;;;2.63;;
32080;SDS011;18593;51.426;7.030;2023-08-31T11:06:49;9.48;;;2.70;;
32080;SDS011;18593;51.426;7.030;2023-08-31T11:09:31;6.57;;;2.53;;
32080;SDS011;18593;51.426;7.030;2023-08-31T11:12:01;8.27;;;2.65;;
32080;SDS011;18593;51.426;7.030;2023-08-31T11:14:28;8.25;;;2.33;;
32080;SDS011;18593;51.426;7.030;2023-08-31T11:16:55;9.75;;;2.45;;
32080;SDS011;18593;51.426;7.030;2023-08-31T11:19:23;8.25;;;2.28;;
32080;SDS011;18593;51.426;7.030;2023-08-31T11:21:52;7.85;;;2.17;;
32080;SDS011;18593;51.426;7.030;2023-08-31T11:24:21;8.10;;;2.67;;
32080;SDS011;18593;51.426;7.030;2023-08-31T11:26:49;8.30;;;2.78;;
32080;SDS011;18593;51.426;7.030;2023-08-31T11:29:18;6.90;;;2.67;;
32080;SDS011;18593;51.426;7.030;2023-08-31T11:31:45;7.22;;;2.20;;
32080;SDS011;18593;51.426;7.030;2023-08-31T11:34:13;7.45;;;2.70;;
32080;SDS011;18593;51.426;7.030;2023-08-31T11:36:41;6.80;;;2.28;;
32080;SDS011;18593;51.426;7.030;2023-08-31T11:39:11;8.82;;;2.63;;
32080;SDS011;18593;51.426;7.030;2023-08-31T11:41:38;5.95;;;2.20;;
32080;SDS011;18593;51.426;7.030;2023-08-31T11:44:07;8.07;;;2.05;;
32080;SDS011;18593;51.426;7.030;2023-08-31T12:32:16;6.93;;;2.10;;
32080;SDS011;18593;51.426;7.030;2023-08-31T12:34:44;9.07;;;2.20;;
32080;SDS011;18593;51.426;7.030;2023-08-31T12:37:11;6.07;;;2.00;;
32080;SDS011;18593;51.426;7.030;2023-08-31T12:39:39;4.57;;;1.80;;
32080;SDS011;18593;51.426;7.030;2023-08-31T12:42:07;6.13;;;1.88;;
32080;SDS011;18593;51.426;7.030;2023-08-31T12:44:34;6.13;;;1.90;;
32080;SDS011;18593;51.426;7.030;2023-08-31T12:47:02;8.30;;;2.20;;
32080;SDS011;18593;51.426;7.030;2023-08-31T12:49:31;8.02;;;2.40;;
32080;SDS011;18593;51.426;7.030;2023-08-31T12:51:59;6.68;;;2.20;;
32080;SDS011;18593;51.426;7.030;2023-08-31T12:54:26;6.40;;;2.40;;
32080;SDS011;18593;51.426;7.030;2023-08-31T12:56:54;11.40;;;2.72;;
32080;SDS011;18593;51.426;7.030;2023-08-31T12:59:22;8.20;;;2.92;;
32080;SDS011;18593;51.426;7.030;2023-08-31T13:01:49;10.70;;;3.35;;
32080;SDS011;18593;51.426;7.030;2023-08-31T13:04:17;7.15;;;2.72;;
32080;SDS011;18593;51.426;7.030;2023-08-31T13:06:45;7.63;;;2.33;;
32080;SDS011;18593;51.426;7.030;2023-08-31T13:09:13;8.88;;;2.30;;
32080;SDS011;18593;51.426;7.030;2023-08-31T13:11:41;6.03;;;2.65;;
32080;SDS011;18593;51.426;7.030;2023-08-31T13:14:08;8.35;;;2.60;;
32080;SDS011;18593;51.426;7.030;2023-08-31T13:16:35;8.82;;;2.80;;
32080;SDS011;18593;51.426;7.030;2023-08-31T13:19:05;7.32;;;2.65;;
32080;SDS011;18593;51.426;7.030;2023-08-31T13:21:32;9.35;;;2.80;;
32080;SDS011;18593;51.426;7.030;2023-08-31T13:24:01;9.07;;;3.17;;
32080;SDS011;18593;51.426;7.030;2023-08-31T13:26:29;5.50;;;2.10;;
32080;SDS011;18593;51.426;7.030;2023-08-31T13:28:56;5.80;;;2.50;;
32080;SDS011;18593;51.426;7.030;2023-08-31T13:31:24;6.30;;;2.28;;
32080;SDS011;18593;51.426;7.030;2023-08-31T13:33:53;8.15;;;2.38;;
32080;SDS011;18593;51.426;7.030;2023-08-31T13:36:21;4.63;;;2.38;;
32080;SDS011;18593;51.426;7.030;2023-08-31T13:38:48;6.13;;;2.33;;
32080;SDS011;18593;51.426;7.030;2023-08-31T13:41:17;9.65;;;2.83;;
32080;SDS011;18593;51.426;7.030;2023-08-31T13:43:44;7.35;;;2.20;;
32080;SDS011;18593;51.426;7.030;2023-08-31T13:46:12;6.00;;;2.67;;
32080;SDS011;18593;51.426;7.030;2023-08-31T13:48:39;7.78;;;2.40;;
32080;SDS011;18593;51.426;7.030;2023-08-31T13:51:07;7.07;;;2.33;;
32080;SDS011;18593;51.426;7.030;2023-08-31T13:53:34;7.80;;;2.60;;
32080;SDS011;18593;51.426;7.030;2023-08-31T13:56:01;9.80;;;3.08;;
32080;SDS011;18593;51.426;7.030;2023-08-31T13:58:30;5.95;;;2.15;;
32080;SDS011;18593;51.426;7.030;2023-08-31T14:01:00;6.82;;;2.65;;
32080;SDS011;18593;51.426;7.030;2023-08-31T14:03:28;6.70;;;2.30;;
32080;SDS011;18593;51.426;7.030;2023-08-31T14:05:57;6.90;;;2.30;;
32080;SDS011;18593;51.426;7.030;2023-08-31T14:08:24;6.50;;;2.40;;
32080;SDS011;18593;51.426;7.030;2023-08-31T14:10:52;5.80;;;2.33;;
32080;SDS011;18593;51.426;7.030;2023-08-31T14:13:21;6.32;;;2.35;;
32080;SDS011;18593;51.426;7.030;2023-08-31T14:15:49;8.40;;;1.85;;
32080;SDS011;18593;51.426;7.030;2023-08-31T14:18:17;7.57;;;2.58;;
32080;SDS011;18593;51.426;7.030;2023-08-31T14:20:46;5.25;;;2.13;;
32080;SDS011;18593;51.426;7.030;2023-08-31T14:23:13;6.97;;;2.30;;
32080;SDS011;18593;51.426;7.030;2023-08-31T14:25:41;6.10;;;2.10;;
32080;SDS011;18593;51.426;7.030;2023-08-31T14:28:08;5.45;;;2.00;;
32080;SDS011;18593;51.426;7.030;2023-08-31T14:30:36;9.48;;;2.00;;
32080;SDS011;18593;51.426;7.030;2023-08-31T14:33:05;7.50;;;3.45;;
32080;SDS011;18593;51.426;7.030;2023-08-31T14:35:35;9.40;;;3.78;;
32080;SDS011;18593;51.426;7.030;2023-08-31T14:38:03;8.40;;;3.57;;
32080;SDS011;18593;51.426;7.030;2023-08-31T14:40:31;8.52;;;3.88;;
32080;SDS011;18593;51.426;7.030;2023-08-31T14:43:00;7.88;;;3.90;;
32080;SDS011;18593;51.426;7.030;2023-08-31T14:45:27;8.57;;;4.10;;
32080;SDS011;18593;51.426;7.030;2023-08-31T14:47:55;9.10;;;4.68;;
32080;SDS011;18593;51.426;7.030;2023-08-31T14:50:23;8.23;;;3.90;;
32080;SDS011;18593;51.426;7.030;2023-08-31T14:52:51;8.85;;;4.25;;
32080;SDS011;18593;51.426;7.030;2023-08-31T14:55:18;8.65;;;4.13;;
32080;SDS011;18593;51.426;7.030;2023-08-31T14:57:45;7.85;;;4.38;;
32080;SDS011;18593;51.426;7.030;2023-08-31T15:00:13;9.40;;;4.50;;
32080;SDS011;18593;51.426;7.030;2023-08-31T15:02:40;8.00;;;4.22;;
32080;SDS011;18593;51.426;7.030;2023-08-31T15:05:08;8.70;;;4.43;;
32080;SDS011;18593;51.426;7.030;2023-08-31T15:07:38;8.38;;;4.68;;
32080;SDS011;18593;51.426;7.030;2023-08-31T15:10:06;9.60;;;5.45;;
32080;SDS011;18593;51.426;7.030;2023-08-31T15:12:34;9.15;;;4.85;;
32080;SDS011;18593;51.426;7.030;2023-08-31T15:15:02;10.40;;;5.38;;
32080;SDS011;18593;51.426;7.030;2023-08-31T15:17:31;7.30;;;4.53;;
32080;SDS011;18593;51.426;7.030;2023-08-31T15:19:58;9.48;;;4.72;;
32080;SDS011;18593;51.426;7.030;2023-08-31T15:22:25;8.20;;;4.78;;
32080;SDS011;18593;51.426;7.030;2023-08-31T15:24:54;9.45;;;4.93;;
32080;SDS011;18593;51.426;7.030;2023-08-31T15:27:21;8.32;;;4.65;;
32080;SDS011;18593;51.426;7.030;2023-08-31T15:29:49;11.07;;;4.60;;
32080;SDS011;18593;51.426;7.030;2023-08-31T15:32:16;10.40;;;4.82;;
32080;SDS011;18593;51.426;7.030;2023-08-31T15:34:44;9.80;;;4.43;;
32080;SDS011;18593;51.426;7.030;2023-08-31T15:37:12;7.28;;;4.00;;